createdAt,value
2023-01-19T00:00:00.376Z,86.39
2023-01-19T00:05:06.566Z,86.42
2023-01-19T00:10:09.960Z,86.65
2023-01-19T00:15:12.644Z,86.68
2023-01-19T00:20:16.581Z,86.32
2023-01-19T00:25:18.869Z,86.45
2023-01-19T00:30:21.191Z,86.47
2023-01-19T00:35:24.123Z,86.75
2023-01-19T00:40:26.386Z,86.72
2023-01-19T00:45:29.298Z,86.67
2023-01-19T00:50:32.714Z,86.54
2023-01-19T00:55:36.047Z,87.00
2023-01-19T01:00:38.811Z,87.14
2023-01-19T01:05:42.124Z,86.85
2023-01-19T01:10:43.989Z,86.90
2023-01-19T01:15:49.973Z,87.39
2023-01-19T01:20:54.577Z,87.18
2023-01-19T01:25:58.563Z,87.11
2023-01-19T01:31:01.708Z,87.22
2023-01-19T01:36:04.473Z,87.51
2023-01-19T01:41:06.922Z,87.61
2023-01-19T01:46:09.449Z,87.70
2023-01-19T01:51:47.163Z,87.97
2023-01-19T01:56:54.851Z,87.42
2023-01-19T02:02:18.207Z,87.52
2023-01-19T02:07:50.060Z,87.74
2023-01-19T02:13:12.318Z,87.91
2023-01-19T02:18:15.922Z,87.46
2023-01-19T02:23:41.913Z,87.43
2023-01-19T02:28:58.633Z,87.25
2023-01-19T02:34:05.154Z,87.01
2023-01-19T02:39:10.475Z,86.80
2023-01-19T02:44:14.843Z,86.85
2023-01-19T02:49:19.019Z,86.58
2023-01-19T02:54:47.501Z,86.39
2023-01-19T03:00:19.081Z,86.96
2023-01-19T03:05:41.745Z,87.18
2023-01-19T03:11:02.445Z,86.99
2023-01-19T03:16:28.676Z,87.13
2023-01-19T03:21:35.509Z,86.63
2023-01-19T03:26:44.787Z,86.39
2023-01-19T03:31:50.705Z,86.43
2023-01-19T03:36:58.694Z,86.50
2023-01-19T03:42:11.381Z,86.67
2023-01-19T03:47:14.716Z,86.56
2023-01-19T03:52:17.572Z,86.73
2023-01-19T03:57:20.835Z,86.62
2023-01-19T04:02:25.473Z,86.38
2023-01-19T04:07:28.993Z,86.55
2023-01-19T04:12:31.519Z,86.67
2023-01-19T04:17:34.261Z,86.48
2023-01-19T04:22:39.456Z,86.33
2023-01-19T04:27:42.988Z,86.46
2023-01-19T04:32:46.905Z,86.86
2023-01-19T04:37:49.943Z,87.01
2023-01-19T04:42:54.501Z,87.16
2023-01-19T04:47:58.050Z,86.78
2023-01-19T04:53:03.435Z,86.86
2023-01-19T04:58:08.740Z,86.85
2023-01-19T05:03:11.540Z,86.86
2023-01-19T05:08:14.563Z,87.09
2023-01-19T05:13:18.986Z,86.94
2023-01-19T05:18:21.831Z,87.12
2023-01-19T05:23:23.998Z,87.00
2023-01-19T05:28:26.569Z,87.26
2023-01-19T05:33:30.442Z,87.19
2023-01-19T05:38:36.001Z,86.52
2023-01-19T05:43:40.557Z,86.63
2023-01-19T05:48:45.384Z,86.89
2023-01-19T05:53:47.852Z,86.72
2023-01-19T05:58:51.039Z,86.72
2023-01-19T06:03:53.488Z,86.68
2023-01-19T06:08:56.666Z,86.85
2023-01-19T06:13:58.890Z,86.43
2023-01-19T06:19:01.686Z,86.38
2023-01-19T06:24:04.835Z,86.33
2023-01-19T06:29:09.290Z,86.56
2023-01-19T06:34:13.504Z,86.25
2023-01-19T06:39:16.145Z,86.39
2023-01-19T06:44:19.820Z,86.20
2023-01-19T06:49:22.835Z,86.47
2023-01-19T06:54:27.535Z,86.24
2023-01-19T06:59:32.503Z,86.50
2023-01-19T07:04:35.051Z,86.54
2023-01-19T07:09:38.268Z,86.13
2023-01-19T07:14:42.075Z,86.14
2023-01-19T07:19:47.688Z,86.60
2023-01-19T07:24:51.393Z,86.65
2023-01-19T07:29:54.779Z,87.05
2023-01-19T07:34:57.621Z,86.80
2023-01-19T07:40:01.260Z,86.44
2023-01-19T07:45:04.651Z,86.54
2023-01-19T07:50:07.461Z,86.44
2023-01-19T07:55:10.178Z,86.81
2023-01-19T08:00:14.580Z,86.30
2023-01-19T08:05:19.588Z,86.62
2023-01-19T08:10:25.566Z,86.42
2023-01-19T08:15:28.613Z,86.10
2023-01-19T08:20:32.581Z,86.12
2023-01-19T08:25:46.004Z,86.27
2023-01-19T08:30:54.845Z,86.08
2023-01-19T08:35:58.919Z,85.81
2023-01-19T08:41:01.867Z,86.19
2023-01-19T08:46:05.371Z,86.34
2023-01-19T08:51:07.492Z,86.25
2023-01-19T08:56:14.039Z,85.99
2023-01-19T09:01:16.775Z,86.18
2023-01-19T09:06:19.638Z,86.08
2023-01-19T09:11:23.030Z,86.04
2023-01-19T09:16:27.214Z,85.92
2023-01-19T09:21:30.448Z,85.83
2023-01-19T09:26:33.301Z,85.98
2023-01-19T09:31:35.855Z,85.45
2023-01-19T09:36:39.739Z,85.32
2023-01-19T09:41:47.534Z,85.49
2023-01-19T09:46:49.763Z,85.21
2023-01-19T09:51:52.273Z,84.62
2023-01-19T09:56:54.529Z,84.25
2023-01-19T10:02:03.129Z,83.57
2023-01-19T10:07:31.427Z,83.67
2023-01-19T10:12:54.247Z,83.72
2023-01-19T10:18:34.934Z,83.25
2023-01-19T10:24:01.488Z,83.20
2023-01-19T10:29:30.595Z,82.77
2023-01-19T10:34:34.157Z,82.77
2023-01-19T10:39:38.738Z,83.07
2023-01-19T10:44:42.593Z,82.96
2023-01-19T10:49:48.312Z,82.76
2023-01-19T10:54:52.979Z,82.81
2023-01-19T11:00:01.996Z,82.85
2023-01-19T11:05:27.427Z,82.35
2023-01-19T11:10:31.165Z,82.38
2023-01-19T11:15:44.876Z,82.50
2023-01-19T11:20:48.526Z,82.34
2023-01-19T11:25:54.858Z,82.24
2023-01-19T11:31:11.246Z,82.33
2023-01-19T11:36:25.887Z,82.19
2023-01-19T11:41:35.207Z,82.00
2023-01-19T11:46:45.219Z,82.18
2023-01-19T11:52:27.454Z,82.20
2023-01-19T11:57:31.752Z,82.30
2023-01-19T12:02:45.496Z,82.18
2023-01-19T12:07:50.533Z,81.93
2023-01-19T12:12:55.519Z,81.93
2023-01-19T12:18:00.708Z,82.17
2023-01-19T12:23:18.963Z,81.71
2023-01-19T12:28:31.392Z,81.83
2023-01-19T12:33:41.373Z,81.78
2023-01-19T12:38:56.029Z,81.30
2023-01-19T12:44:12.423Z,81.67
2023-01-19T12:49:29.376Z,81.62
2023-01-19T12:54:32.460Z,81.53
2023-01-19T12:59:37.039Z,81.44
2023-01-19T13:04:39.136Z,81.12
2023-01-19T13:09:42.915Z,80.96
2023-01-19T13:14:45.226Z,81.01
2023-01-19T13:19:52.490Z,81.08
2023-01-19T13:25:07.773Z,81.07
2023-01-19T13:30:17.780Z,81.06
2023-01-19T13:35:20.751Z,80.87
2023-01-19T13:40:27.289Z,81.04
2023-01-19T13:45:37.514Z,81.31
2023-01-19T13:50:39.638Z,81.04
2023-01-19T13:55:42.124Z,80.99
2023-01-19T14:00:45.433Z,81.14
2023-01-19T14:05:51.764Z,81.13
2023-01-19T14:10:54.210Z,81.05
2023-01-19T14:16:00.587Z,80.99
2023-01-19T14:21:03.325Z,81.07
2023-01-19T14:26:43.237Z,81.00
2023-01-19T14:32:09.071Z,81.15
2023-01-19T14:37:22.333Z,81.18
2023-01-19T14:42:32.075Z,81.32
2023-01-19T14:47:41.459Z,81.01
2023-01-19T14:52:54.619Z,81.10
2023-01-19T14:57:56.759Z,80.94
2023-01-19T15:02:58.875Z,81.08
2023-01-19T15:08:02.770Z,81.26
2023-01-19T15:13:05.437Z,81.23
2023-01-19T15:18:17.189Z,81.61
2023-01-19T15:23:19.656Z,81.65
2023-01-19T15:28:23.007Z,81.77
2023-01-19T15:33:30.688Z,81.52
2023-01-19T15:38:34.694Z,81.27
2023-01-19T15:43:37.586Z,81.56
2023-01-19T15:48:39.870Z,81.62
2023-01-19T15:53:42.729Z,81.88
2023-01-19T15:58:44.784Z,81.37
2023-01-19T16:03:47.174Z,81.47
2023-01-19T16:08:49.426Z,81.78
2023-01-19T16:13:51.903Z,81.63
2023-01-19T16:18:55.180Z,81.66
2023-01-19T16:23:58.419Z,81.44
2023-01-19T16:29:08.079Z,81.67
2023-01-19T16:34:12.005Z,81.96
2023-01-19T16:39:15.809Z,81.85
2023-01-19T16:44:20.287Z,81.95
2023-01-19T16:49:28.572Z,81.97
2023-01-19T16:54:32.643Z,82.17
2023-01-19T16:59:36.419Z,82.28
2023-01-19T17:04:39.226Z,82.31
2023-01-19T17:09:41.996Z,82.18
2023-01-19T17:14:50.086Z,82.04
2023-01-19T17:19:57.163Z,82.22
2023-01-19T17:25:00.338Z,82.30
2023-01-19T17:30:05.203Z,82.24
2023-01-19T17:35:09.454Z,82.32
2023-01-19T17:40:12.276Z,82.28
2023-01-19T17:45:16.198Z,82.44
2023-01-19T17:50:18.768Z,82.45
2023-01-19T17:55:20.806Z,82.58
2023-01-19T18:00:23.474Z,82.14
2023-01-19T18:05:25.775Z,81.81
2023-01-19T18:10:27.920Z,82.20
2023-01-19T18:15:30.863Z,82.42
2023-01-19T18:20:33.351Z,82.43
2023-01-19T18:25:35.396Z,82.38
2023-01-19T18:30:38.934Z,82.35
2023-01-19T18:35:42.918Z,82.45
2023-01-19T18:40:47.269Z,82.79
2023-01-19T18:45:50.065Z,82.39
2023-01-19T18:50:53.720Z,82.59
2023-01-19T18:55:59.013Z,82.61
2023-01-19T19:01:06.982Z,82.09
2023-01-19T19:06:10.241Z,82.74
2023-01-19T19:11:14.541Z,82.80
2023-01-19T19:16:18.137Z,82.61
2023-01-19T19:21:22.102Z,82.71
2023-01-19T19:26:25.773Z,82.58
2023-01-19T19:31:29.820Z,83.04
2023-01-19T19:36:33.009Z,82.98
2023-01-19T19:41:38.132Z,83.03
2023-01-19T19:46:41.664Z,82.96
2023-01-19T19:51:44.220Z,82.97
2023-01-19T19:56:48.109Z,82.84
2023-01-19T20:01:53.980Z,82.91
2023-01-19T20:07:00.289Z,82.76
2023-01-19T20:12:04.957Z,82.95
2023-01-19T20:17:08.534Z,83.10
2023-01-19T20:22:13.235Z,83.34
2023-01-19T20:27:17.458Z,83.00
2023-01-19T20:32:21.017Z,83.26
2023-01-19T20:37:27.558Z,83.24
2023-01-19T20:42:31.567Z,83.42
2023-01-19T20:47:38.582Z,83.61
2023-01-19T20:52:43.185Z,83.46
2023-01-19T20:57:47.821Z,83.72
2023-01-19T21:02:51.909Z,83.70
2023-01-19T21:07:56.289Z,83.80
2023-01-19T21:12:59.954Z,83.97
2023-01-19T21:18:03.721Z,83.88
2023-01-19T21:23:07.202Z,84.13
2023-01-19T21:28:10.433Z,83.93
2023-01-19T21:33:14.507Z,84.01
2023-01-19T21:38:17.156Z,83.88
2023-01-19T21:43:21.059Z,83.67
2023-01-19T21:48:28.361Z,83.65
2023-01-19T21:53:32.224Z,83.71
2023-01-19T21:58:35.536Z,83.92
2023-01-19T22:03:38.834Z,83.79
2023-01-19T22:08:42.760Z,83.61
2023-01-19T22:13:47.023Z,84.09
2023-01-19T22:18:54.098Z,84.08
2023-01-19T22:23:59.863Z,83.82
2023-01-19T22:29:05.184Z,83.70
2023-01-19T22:34:11.013Z,83.74
2023-01-19T22:39:16.819Z,83.74
2023-01-19T22:44:21.518Z,83.97
2023-01-19T22:49:24.715Z,83.58
2023-01-19T22:54:30.080Z,83.72
2023-01-19T22:59:32.911Z,83.63
2023-01-19T23:04:35.076Z,83.22
2023-01-19T23:09:37.646Z,83.27
2023-01-19T23:14:39.742Z,83.47
2023-01-19T23:19:44.361Z,83.74
2023-01-19T23:24:46.776Z,83.33
2023-01-19T23:29:49.366Z,83.36
2023-01-19T23:34:51.629Z,83.13
2023-01-19T23:39:53.851Z,82.92
2023-01-19T23:44:56.440Z,82.60
2023-01-19T23:49:59.016Z,82.94
2023-01-19T23:55:02.069Z,82.99
